createdAt,value
2018-01-24T00:00:34.026Z,0.00
2018-01-24T00:01:34.039Z,0.00
2018-01-24T00:02:34.055Z,0.00
2018-01-24T00:03:34.211Z,0.00
2018-01-24T00:04:34.087Z,0.00
2018-01-24T00:05:34.106Z,0.00
2018-01-24T00:06:34.113Z,0.00
2018-01-24T00:07:34.129Z,0.00
2018-01-24T00:08:34.144Z,0.00
2018-01-24T00:09:34.162Z,0.00
2018-01-24T00:10:34.180Z,0.00
2018-01-24T00:11:34.196Z,0.00
2018-01-24T00:12:34.209Z,0.00
2018-01-24T00:13:34.218Z,0.00
2018-01-24T00:14:34.236Z,0.00
2018-01-24T00:15:34.254Z,0.00
2018-01-24T00:16:34.268Z,0.00
2018-01-24T00:17:34.286Z,0.00
2018-01-24T00:18:34.297Z,0.00
2018-01-24T00:19:34.312Z,0.00
2018-01-24T00:20:34.326Z,0.00
2018-01-24T00:21:34.346Z,0.00
2018-01-24T00:22:34.361Z,0.00
2018-01-24T00:23:34.389Z,0.00
2018-01-24T00:24:34.386Z,0.00
2018-01-24T00:25:34.402Z,0.00
2018-01-24T00:26:34.418Z,0.00
2018-01-24T00:27:34.434Z,0.00
2018-01-24T00:28:34.450Z,0.00
2018-01-24T00:29:34.464Z,0.00
2018-01-24T00:30:34.482Z,0.00
2018-01-24T00:31:34.495Z,0.00
2018-01-24T00:32:34.509Z,0.00
2018-01-24T00:33:34.522Z,0.00
2018-01-24T00:34:34.538Z,0.00
2018-01-24T00:35:34.554Z,0.00
2018-01-24T00:36:34.571Z,0.00
2018-01-24T00:37:34.586Z,0.00
2018-01-24T00:38:34.602Z,0.00
2018-01-24T00:39:34.616Z,0.00
2018-01-24T00:40:34.631Z,0.00
2018-01-24T00:41:34.652Z,0.00
2018-01-24T00:42:34.662Z,0.00
2018-01-24T00:43:34.682Z,0.00
2018-01-24T00:44:34.693Z,0.00
2018-01-24T00:45:34.715Z,0.00
2018-01-24T00:46:34.723Z,0.00
2018-01-24T00:47:34.739Z,0.00
2018-01-24T00:48:34.757Z,0.00
2018-01-24T00:49:34.785Z,0.00
2018-01-24T00:50:34.785Z,0.00
2018-01-24T00:51:34.800Z,0.00
2018-01-24T00:52:34.816Z,0.00
2018-01-24T00:53:34.831Z,0.00
2018-01-24T00:54:34.846Z,0.00
2018-01-24T00:55:34.875Z,0.00
2018-01-24T00:56:34.880Z,0.00
2018-01-24T00:57:34.894Z,0.00
2018-01-24T00:58:34.907Z,0.00
2018-01-24T00:59:34.925Z,0.00
2018-01-24T01:00:34.937Z,0.00
2018-01-24T01:01:34.954Z,0.00
2018-01-24T01:02:34.969Z,0.00
2018-01-24T01:03:34.984Z,0.00
2018-01-24T01:04:34.998Z,0.00
2018-01-24T01:05:35.020Z,0.00
2018-01-24T01:06:35.036Z,0.00
2018-01-24T01:07:35.050Z,0.00
2018-01-24T01:08:35.060Z,0.00
2018-01-24T01:09:35.077Z,0.00
2018-01-24T01:10:35.093Z,0.00
2018-01-24T01:11:35.107Z,0.00
2018-01-24T01:12:35.122Z,0.00
2018-01-24T01:13:35.141Z,0.00
2018-01-24T01:14:35.162Z,0.00
2018-01-24T01:15:35.169Z,0.00
2018-01-24T01:16:35.188Z,0.00
2018-01-24T01:17:35.199Z,0.00
2018-01-24T01:18:35.217Z,0.00
2018-01-24T01:19:35.231Z,0.00
2018-01-24T01:20:35.253Z,0.00
2018-01-24T01:21:35.261Z,0.00
2018-01-24T01:22:35.276Z,0.00
2018-01-24T01:23:35.292Z,0.00
2018-01-24T01:24:35.304Z,0.00
2018-01-24T01:25:35.320Z,0.00
2018-01-24T01:26:35.338Z,0.00
2018-01-24T01:27:35.352Z,0.00
2018-01-24T01:28:35.372Z,0.00
2018-01-24T01:29:35.384Z,0.00
2018-01-24T01:30:35.398Z,0.00
2018-01-24T01:31:35.415Z,0.00
2018-01-24T01:32:35.429Z,0.00
2018-01-24T01:33:35.444Z,0.00
2018-01-24T01:34:35.460Z,0.00
2018-01-24T01:35:35.475Z,0.00
2018-01-24T01:36:35.496Z,0.00
2018-01-24T01:37:35.508Z,0.00
2018-01-24T01:38:35.522Z,0.00
2018-01-24T01:39:35.539Z,0.00
2018-01-24T01:40:35.552Z,0.00
2018-01-24T01:41:35.572Z,0.00
2018-01-24T01:42:35.584Z,0.00
2018-01-24T01:43:35.600Z,0.00
2018-01-24T01:44:35.616Z,0.00
2018-01-24T01:45:35.628Z,0.00
2018-01-24T01:46:35.667Z,0.00
2018-01-24T01:47:35.662Z,0.00
2018-01-24T01:48:35.676Z,0.00
2018-01-24T01:49:35.693Z,0.00
2018-01-24T01:50:35.711Z,0.00
2018-01-24T01:51:35.723Z,0.00
2018-01-24T01:52:35.740Z,0.00
2018-01-24T01:53:35.752Z,0.00
2018-01-24T01:54:35.769Z,0.00
2018-01-24T01:55:35.784Z,0.00
2018-01-24T01:56:35.798Z,0.00
2018-01-24T01:57:35.816Z,0.00
2018-01-24T01:58:35.830Z,0.00
2018-01-24T01:59:35.848Z,0.00
2018-01-24T02:00:35.862Z,0.00
2018-01-24T02:01:35.878Z,0.00
2018-01-24T02:02:35.893Z,0.00
2018-01-24T02:03:35.912Z,0.00
2018-01-24T02:04:35.924Z,0.00
2018-01-24T02:05:35.935Z,0.00
2018-01-24T02:06:35.954Z,0.00
2018-01-24T02:07:35.968Z,0.00
2018-01-24T02:08:35.984Z,0.00
2018-01-24T02:09:36.001Z,0.00
2018-01-24T02:10:36.013Z,0.00
2018-01-24T02:11:36.030Z,0.00
2018-01-24T02:12:36.046Z,0.00
2018-01-24T02:13:36.060Z,0.00
2018-01-24T02:14:36.079Z,0.00
2018-01-24T02:15:36.095Z,0.00
2018-01-24T02:16:36.108Z,0.00
2018-01-24T02:17:36.127Z,0.00
2018-01-24T02:18:36.139Z,0.00
2018-01-24T02:19:36.153Z,0.00
2018-01-24T02:20:36.169Z,0.00
2018-01-24T02:21:36.190Z,0.00
2018-01-24T02:22:36.201Z,0.00
2018-01-24T02:23:36.216Z,0.00
2018-01-24T02:24:36.231Z,0.00
2018-01-24T02:25:36.245Z,0.00
2018-01-24T02:26:36.261Z,0.00
2018-01-24T02:27:36.278Z,0.00
2018-01-24T02:28:36.293Z,0.00
2018-01-24T02:29:36.308Z,0.00
2018-01-24T02:30:36.322Z,0.00
2018-01-24T02:31:36.340Z,0.00
2018-01-24T02:32:36.353Z,0.00
2018-01-24T02:33:36.372Z,0.00
2018-01-24T02:34:36.385Z,0.00
2018-01-24T02:35:36.404Z,0.00
2018-01-24T02:36:36.416Z,0.00
2018-01-24T02:37:36.440Z,0.00
2018-01-24T02:38:36.450Z,0.00
2018-01-24T02:39:36.465Z,0.00
2018-01-24T02:40:36.476Z,0.00
2018-01-24T02:41:36.494Z,0.00
2018-01-24T02:42:36.520Z,0.00
2018-01-24T02:43:36.526Z,0.00
2018-01-24T02:44:36.539Z,0.00
2018-01-24T02:45:36.557Z,0.00
2018-01-24T02:46:36.571Z,0.00
2018-01-24T02:47:36.588Z,0.00
2018-01-24T02:48:36.600Z,0.00
2018-01-24T02:49:36.618Z,0.00
2018-01-24T02:50:36.634Z,0.00
2018-01-24T02:51:36.651Z,0.00
2018-01-24T02:52:36.663Z,0.00
2018-01-24T02:53:36.682Z,0.00
2018-01-24T02:54:36.696Z,0.00
2018-01-24T02:55:36.849Z,0.00
2018-01-24T02:56:36.727Z,0.00
2018-01-24T02:57:36.743Z,0.00
2018-01-24T02:58:36.757Z,0.00
2018-01-24T02:59:36.773Z,0.00
2018-01-24T03:00:36.789Z,0.00
2018-01-24T03:01:36.807Z,0.00
2018-01-24T03:02:36.821Z,0.00
2018-01-24T03:03:36.835Z,0.00
2018-01-24T03:04:36.851Z,0.00
2018-01-24T03:05:36.866Z,0.00
2018-01-24T03:06:36.884Z,0.00
2018-01-24T03:07:36.898Z,0.00
2018-01-24T03:08:36.913Z,0.00
2018-01-24T03:09:36.931Z,0.00
2018-01-24T03:10:36.946Z,0.00
2018-01-24T03:11:36.962Z,0.00
2018-01-24T03:12:36.974Z,0.00
2018-01-24T03:13:36.992Z,0.00
2018-01-24T03:14:37.007Z,0.00
2018-01-24T03:15:37.023Z,0.00
2018-01-24T03:16:37.049Z,0.00
2018-01-24T03:17:37.052Z,0.00
2018-01-24T03:18:37.070Z,0.00
2018-01-24T03:19:37.084Z,0.00
2018-01-24T03:20:37.098Z,0.00
2018-01-24T03:21:37.116Z,0.00
2018-01-24T03:22:37.129Z,0.00
2018-01-24T03:23:37.149Z,0.00
2018-01-24T03:24:37.165Z,0.00
2018-01-24T03:25:37.179Z,0.00
2018-01-24T03:26:37.195Z,0.00
2018-01-24T03:27:37.210Z,0.00
2018-01-24T03:28:37.224Z,0.00
2018-01-24T03:29:37.240Z,0.00
2018-01-24T03:30:37.261Z,0.00
2018-01-24T03:31:37.270Z,0.00
2018-01-24T03:32:37.287Z,0.00
2018-01-24T03:33:37.301Z,0.00
2018-01-24T03:34:37.318Z,0.00
2018-01-24T03:35:37.338Z,0.00
2018-01-24T03:36:37.349Z,0.00
2018-01-24T03:37:37.370Z,0.00
2018-01-24T03:38:37.382Z,0.00
2018-01-24T03:39:37.395Z,0.00
2018-01-24T03:40:37.409Z,0.00
2018-01-24T03:41:37.426Z,0.00
2018-01-24T03:42:37.441Z,0.00
2018-01-24T03:43:37.456Z,0.00
2018-01-24T03:44:37.473Z,0.00
2018-01-24T03:45:37.487Z,0.00
2018-01-24T03:46:37.507Z,0.00
2018-01-24T03:47:37.525Z,0.00
2018-01-24T03:48:37.541Z,0.00
2018-01-24T03:49:37.551Z,0.00
2018-01-24T03:50:37.573Z,0.00
2018-01-24T03:51:37.583Z,0.00
2018-01-24T03:52:37.605Z,0.00
2018-01-24T03:53:37.614Z,0.00
2018-01-24T03:54:37.630Z,0.00
2018-01-24T03:55:37.649Z,0.00
2018-01-24T03:56:37.671Z,0.00
2018-01-24T03:57:37.678Z,0.00
2018-01-24T03:58:37.710Z,0.00
2018-01-24T03:59:37.709Z,0.00
2018-01-24T04:00:37.725Z,0.00
2018-01-24T04:01:37.741Z,0.00
2018-01-24T04:02:37.756Z,0.00
2018-01-24T04:03:37.772Z,0.00
2018-01-24T04:04:37.791Z,0.00
2018-01-24T04:05:37.806Z,0.00
2018-01-24T04:06:37.819Z,0.00
2018-01-24T04:07:37.834Z,0.00
2018-01-24T04:08:37.852Z,0.00
2018-01-24T04:09:37.873Z,0.00
2018-01-24T04:10:37.881Z,0.00
2018-01-24T04:11:37.898Z,0.00
2018-01-24T04:12:37.915Z,0.00
2018-01-24T04:13:37.929Z,0.00
2018-01-24T04:14:37.947Z,0.00
2018-01-24T04:15:37.964Z,0.00
2018-01-24T04:16:37.977Z,0.00
2018-01-24T04:17:37.992Z,0.00
2018-01-24T04:18:38.011Z,0.00
2018-01-24T04:19:38.026Z,0.00
2018-01-24T04:20:38.039Z,0.00
2018-01-24T04:21:38.054Z,0.00
2018-01-24T04:22:38.072Z,0.00
2018-01-24T04:23:38.086Z,0.00
2018-01-24T04:24:38.106Z,0.00
2018-01-24T04:25:38.118Z,0.00
2018-01-24T04:26:38.135Z,0.00
2018-01-24T04:27:38.149Z,0.00
2018-01-24T04:28:38.166Z,0.00
2018-01-24T04:29:38.183Z,0.00
2018-01-24T04:30:38.196Z,0.00
2018-01-24T04:31:38.212Z,0.00
2018-01-24T04:32:38.230Z,0.00
2018-01-24T04:33:38.251Z,0.00
2018-01-24T04:34:38.259Z,0.00
2018-01-24T04:35:38.279Z,0.00
2018-01-24T04:36:38.294Z,0.00
2018-01-24T04:37:38.309Z,0.00
2018-01-24T04:38:38.330Z,0.00
2018-01-24T04:39:38.340Z,0.00
2018-01-24T04:40:38.356Z,0.00
2018-01-24T04:41:38.373Z,0.00
2018-01-24T04:42:38.390Z,0.00
2018-01-24T04:43:38.405Z,0.00
2018-01-24T04:44:38.428Z,0.00
2018-01-24T04:45:38.436Z,0.00
2018-01-24T04:46:38.453Z,0.00
2018-01-24T04:47:38.468Z,0.00
2018-01-24T04:48:38.482Z,0.00
2018-01-24T04:49:38.500Z,0.00
2018-01-24T04:50:38.515Z,0.00
2018-01-24T04:51:38.532Z,0.00
2018-01-24T04:52:38.547Z,0.00
2018-01-24T04:53:38.562Z,0.00
2018-01-24T04:54:38.581Z,0.00
2018-01-24T04:55:38.595Z,0.00
2018-01-24T04:56:38.613Z,0.00
2018-01-24T04:57:38.626Z,0.00
2018-01-24T04:58:38.644Z,0.00
2018-01-24T04:59:38.659Z,0.00
2018-01-24T05:00:38.674Z,0.00
2018-01-24T05:01:38.690Z,0.00
2018-01-24T05:02:38.707Z,0.00
2018-01-24T05:03:38.723Z,0.00
2018-01-24T05:04:38.739Z,0.00
2018-01-24T05:05:38.753Z,0.00
2018-01-24T05:06:38.781Z,0.00
2018-01-24T05:07:38.787Z,0.00
2018-01-24T05:08:38.802Z,0.00
2018-01-24T05:09:38.816Z,0.00
2018-01-24T05:10:38.832Z,0.00
2018-01-24T05:11:38.853Z,0.00
2018-01-24T05:12:38.867Z,0.00
2018-01-24T05:13:38.882Z,0.00
2018-01-24T05:14:38.899Z,0.00
2018-01-24T05:15:38.913Z,0.00
2018-01-24T05:16:38.932Z,0.00
2018-01-24T05:17:38.944Z,0.00
2018-01-24T05:18:38.962Z,0.00
2018-01-24T05:19:38.982Z,0.00
2018-01-24T05:20:38.991Z,0.00
2018-01-24T05:21:39.011Z,0.00
2018-01-24T05:22:39.027Z,0.00
2018-01-24T05:23:39.042Z,0.00
2018-01-24T05:24:39.059Z,0.00
2018-01-24T05:25:39.075Z,0.00
2018-01-24T05:26:39.088Z,0.00
2018-01-24T05:27:39.105Z,0.00
2018-01-24T05:28:39.128Z,0.00
2018-01-24T05:29:39.138Z,0.00
2018-01-24T05:30:39.152Z,0.00
2018-01-24T05:31:39.170Z,0.00
2018-01-24T05:32:39.185Z,0.00
2018-01-24T05:33:39.201Z,0.00
2018-01-24T05:34:39.222Z,0.00
2018-01-24T05:35:39.233Z,0.00
2018-01-24T05:36:39.249Z,0.00
2018-01-24T05:37:39.268Z,0.00
2018-01-24T05:38:39.283Z,0.00
2018-01-24T05:39:39.297Z,0.00
2018-01-24T05:40:39.314Z,0.00
2018-01-24T05:41:39.328Z,0.00
2018-01-24T05:42:39.346Z,0.00
2018-01-24T05:43:39.362Z,0.00
2018-01-24T05:44:39.389Z,0.00
2018-01-24T05:45:39.400Z,0.00
2018-01-24T05:46:39.412Z,0.00
2018-01-24T05:47:39.426Z,0.00
2018-01-24T05:48:39.442Z,0.00
2018-01-24T05:49:39.459Z,0.00
2018-01-24T05:50:39.479Z,0.00
2018-01-24T05:51:39.492Z,0.00
2018-01-24T05:52:39.506Z,0.00
2018-01-24T05:53:39.521Z,0.00
2018-01-24T05:54:39.538Z,0.00
2018-01-24T05:55:39.558Z,0.00
2018-01-24T05:56:39.570Z,0.00
2018-01-24T05:57:39.591Z,0.00
2018-01-24T05:58:39.603Z,0.00
2018-01-24T05:59:39.622Z,0.00
2018-01-24T06:00:39.639Z,0.00
2018-01-24T06:01:39.653Z,0.00
2018-01-24T06:02:39.667Z,0.00
2018-01-24T06:03:39.685Z,0.00
2018-01-24T06:04:39.697Z,0.00
2018-01-24T06:05:39.720Z,0.00
2018-01-24T06:06:39.735Z,0.00
2018-01-24T06:07:39.747Z,0.00
2018-01-24T06:08:39.764Z,0.00
2018-01-24T06:09:39.779Z,0.00
2018-01-24T06:10:39.797Z,0.00
2018-01-24T06:11:39.812Z,0.00
2018-01-24T06:12:39.827Z,0.00
2018-01-24T06:13:39.848Z,0.00
2018-01-24T06:14:39.858Z,0.00
2018-01-24T06:15:39.880Z,0.00
2018-01-24T06:16:39.892Z,0.00
2018-01-24T06:17:39.906Z,0.00
2018-01-24T06:18:39.923Z,0.00
2018-01-24T06:19:39.941Z,0.00
2018-01-24T06:20:39.957Z,0.00
2018-01-24T06:21:39.971Z,0.00
2018-01-24T06:22:39.989Z,0.00
2018-01-24T06:23:40.003Z,0.00
2018-01-24T06:24:40.019Z,0.00
2018-01-24T06:25:40.037Z,0.00
2018-01-24T06:26:40.052Z,0.00
2018-01-24T06:27:40.067Z,0.00
2018-01-24T06:28:40.083Z,0.00
2018-01-24T06:29:40.097Z,0.00
2018-01-24T06:30:40.119Z,0.00
2018-01-24T06:31:40.133Z,0.00
2018-01-24T06:32:40.145Z,0.00
2018-01-24T06:33:40.159Z,0.00
2018-01-24T06:34:40.177Z,0.00
2018-01-24T06:35:40.196Z,0.00
2018-01-24T06:36:40.208Z,0.00
2018-01-24T06:37:40.227Z,0.00
2018-01-24T06:38:40.241Z,0.00
2018-01-24T06:39:40.257Z,0.00
2018-01-24T06:40:40.276Z,0.00
2018-01-24T06:41:40.288Z,0.00
2018-01-24T06:42:40.305Z,0.00
2018-01-24T06:43:40.322Z,0.00
2018-01-24T06:44:40.345Z,0.00
2018-01-24T06:45:40.354Z,0.00
2018-01-24T06:46:40.367Z,0.00
2018-01-24T06:47:40.546Z,0.00
2018-01-24T06:48:40.407Z,0.00
2018-01-24T06:49:40.416Z,0.00
2018-01-24T06:50:40.434Z,0.00
2018-01-24T06:51:40.451Z,0.00
2018-01-24T06:52:40.467Z,0.00
2018-01-24T06:53:40.482Z,0.00
2018-01-24T06:54:40.497Z,0.00
2018-01-24T06:55:40.545Z,0.00
2018-01-24T06:56:40.528Z,0.00
2018-01-24T06:57:40.545Z,0.00
2018-01-24T06:58:40.563Z,0.00
2018-01-24T06:59:40.581Z,0.00
2018-01-24T07:00:40.596Z,0.00
2018-01-24T07:01:40.610Z,0.00
2018-01-24T07:02:40.627Z,0.00
2018-01-24T07:03:40.643Z,0.00
2018-01-24T07:04:40.658Z,0.00
2018-01-24T07:05:40.676Z,0.00
2018-01-24T07:06:40.691Z,0.00
2018-01-24T07:07:40.707Z,0.00
2018-01-24T07:08:40.723Z,0.00
2018-01-24T07:09:40.737Z,0.00
2018-01-24T07:10:40.755Z,0.00
2018-01-24T07:11:40.774Z,0.00
2018-01-24T07:12:40.784Z,0.00
2018-01-24T07:13:40.803Z,0.00
2018-01-24T07:14:40.822Z,0.00
2018-01-24T07:15:40.838Z,0.00
2018-01-24T07:16:40.850Z,0.00
2018-01-24T07:17:40.867Z,0.00
2018-01-24T07:18:40.884Z,0.00
2018-01-24T07:19:40.902Z,0.00
2018-01-24T07:20:40.919Z,0.00
2018-01-24T07:21:40.936Z,0.00
2018-01-24T07:22:40.950Z,0.00
2018-01-24T07:23:40.969Z,0.00
2018-01-24T07:24:40.981Z,0.00
2018-01-24T07:25:40.998Z,0.00
2018-01-24T07:26:41.021Z,5.63
2018-01-24T07:27:41.031Z,5.63
2018-01-24T07:28:41.045Z,5.63
2018-01-24T07:29:41.064Z,5.63
2018-01-24T07:30:41.077Z,5.63
2018-01-24T07:31:41.095Z,5.63
2018-01-24T07:32:41.111Z,5.63
2018-01-24T07:33:41.129Z,5.63
2018-01-24T07:34:41.146Z,5.63
2018-01-24T07:35:41.162Z,5.63
2018-01-24T07:36:41.177Z,5.63
2018-01-24T07:37:41.192Z,5.63
2018-01-24T07:38:41.212Z,5.63
2018-01-24T07:39:41.231Z,11.25
2018-01-24T07:40:41.242Z,11.25
2018-01-24T07:41:41.257Z,11.25
2018-01-24T07:42:41.273Z,11.25
2018-01-24T07:43:41.292Z,11.25
2018-01-24T07:44:41.308Z,11.25
2018-01-24T07:45:41.328Z,16.88
2018-01-24T07:46:41.390Z,16.88
2018-01-24T07:47:41.357Z,16.88
2018-01-24T07:48:41.370Z,16.88
2018-01-24T07:49:41.387Z,16.88
2018-01-24T07:50:41.403Z,16.88
2018-01-24T07:51:41.422Z,22.50
2018-01-24T07:52:41.439Z,28.13
2018-01-24T07:53:41.451Z,33.75
2018-01-24T07:54:41.470Z,39.38
2018-01-24T07:55:41.484Z,39.38
2018-01-24T07:56:41.501Z,45.00
2018-01-24T07:57:41.520Z,39.38
2018-01-24T07:58:41.535Z,39.38
2018-01-24T07:59:41.550Z,39.38
2018-01-24T08:00:41.566Z,45.00
2018-01-24T08:01:41.587Z,45.00
2018-01-24T08:02:41.598Z,50.63
2018-01-24T08:03:41.620Z,56.25
2018-01-24T08:04:41.634Z,56.25
2018-01-24T08:05:41.647Z,56.25
2018-01-24T08:06:41.670Z,56.25
2018-01-24T08:07:41.679Z,50.63
2018-01-24T08:08:41.698Z,50.63
2018-01-24T08:09:41.717Z,50.63
2018-01-24T08:10:41.735Z,50.63
2018-01-24T08:11:41.750Z,45.00
2018-01-24T08:12:41.765Z,45.00
2018-01-24T08:13:41.782Z,45.00
2018-01-24T08:14:41.801Z,45.00
2018-01-24T08:15:41.813Z,45.00
2018-01-24T08:16:41.828Z,45.00
2018-01-24T08:17:41.844Z,50.63
2018-01-24T08:18:41.862Z,50.63
2018-01-24T08:19:41.880Z,56.25
2018-01-24T08:20:41.895Z,50.63
2018-01-24T08:21:41.915Z,56.25
2018-01-24T08:22:41.928Z,73.13
2018-01-24T08:23:41.952Z,84.38
2018-01-24T08:24:41.961Z,95.63
2018-01-24T08:25:41.977Z,101.25
2018-01-24T08:26:41.994Z,112.50
2018-01-24T08:27:42.010Z,123.75
2018-01-24T08:28:42.025Z,135.00
2018-01-24T08:29:42.046Z,135.00
2018-01-24T08:30:42.062Z,123.75
2018-01-24T08:31:42.075Z,106.88
2018-01-24T08:32:42.095Z,95.63
2018-01-24T08:33:42.109Z,95.63
2018-01-24T08:34:42.126Z,78.75
2018-01-24T08:35:42.143Z,78.75
2018-01-24T08:36:42.159Z,101.25
2018-01-24T08:37:42.178Z,101.25
2018-01-24T08:38:42.196Z,95.63
2018-01-24T08:39:42.208Z,106.88
2018-01-24T08:40:42.228Z,101.25
2018-01-24T08:41:42.241Z,112.50
2018-01-24T08:42:42.263Z,129.38
2018-01-24T08:43:42.276Z,163.13
2018-01-24T08:44:42.291Z,168.75
2018-01-24T08:45:42.310Z,168.75
2018-01-24T08:46:42.330Z,157.50
2018-01-24T08:47:42.345Z,168.75
2018-01-24T08:48:42.361Z,163.13
2018-01-24T08:49:42.377Z,151.88
2018-01-24T08:50:42.394Z,157.50
2018-01-24T08:51:42.413Z,157.50
2018-01-24T08:52:42.427Z,135.00
2018-01-24T08:53:42.442Z,123.75
2018-01-24T08:54:42.467Z,140.63
2018-01-24T08:55:42.482Z,146.25
2018-01-24T08:56:42.510Z,129.38
2018-01-24T08:57:42.513Z,140.63
2018-01-24T08:58:42.526Z,146.25
2018-01-24T08:59:42.545Z,135.00
2018-01-24T09:00:42.563Z,112.50
2018-01-24T09:01:42.583Z,101.25
2018-01-24T09:02:42.593Z,90.00
2018-01-24T09:03:42.615Z,95.63
2018-01-24T09:04:42.631Z,90.00
2018-01-24T09:05:42.648Z,112.50
2018-01-24T09:06:42.665Z,101.25
2018-01-24T09:07:42.689Z,106.88
2018-01-24T09:08:42.700Z,112.50
2018-01-24T09:09:42.714Z,123.75
2018-01-24T09:10:42.730Z,129.38
2018-01-24T09:11:42.747Z,140.63
2018-01-24T09:12:42.767Z,129.38
2018-01-24T09:13:42.780Z,118.13
2018-01-24T09:14:42.797Z,106.88
2018-01-24T09:15:42.815Z,101.25
2018-01-24T09:16:42.833Z,106.88
2018-01-24T09:17:42.855Z,95.63
2018-01-24T09:18:42.865Z,90.00
2018-01-24T09:19:42.881Z,106.88
2018-01-24T09:20:42.899Z,112.50
2018-01-24T09:21:42.916Z,112.50
2018-01-24T09:22:42.933Z,95.63
2018-01-24T09:23:42.950Z,90.00
2018-01-24T09:24:42.968Z,101.25
2018-01-24T09:25:42.984Z,95.63
2018-01-24T09:26:43.001Z,90.00
2018-01-24T09:27:43.019Z,78.75
2018-01-24T09:28:43.041Z,84.38
2018-01-24T09:29:43.052Z,78.75
2018-01-24T09:30:43.075Z,73.13
2018-01-24T09:31:43.088Z,67.50
2018-01-24T09:32:43.100Z,61.88
2018-01-24T09:33:43.120Z,56.25
2018-01-24T09:34:43.136Z,56.25
2018-01-24T09:35:43.151Z,56.25
2018-01-24T09:36:43.168Z,61.88
2018-01-24T09:37:43.186Z,61.88
2018-01-24T09:38:43.206Z,67.50
2018-01-24T09:39:43.226Z,67.50
2018-01-24T09:40:43.237Z,61.88
2018-01-24T09:41:43.254Z,61.88
2018-01-24T09:42:43.271Z,67.50
2018-01-24T09:43:43.289Z,78.75
2018-01-24T09:44:43.304Z,90.00
2018-01-24T09:45:43.320Z,90.00
2018-01-24T09:46:43.338Z,84.38
2018-01-24T09:47:43.356Z,90.00
2018-01-24T09:48:43.373Z,84.38
2018-01-24T09:49:43.398Z,78.75
2018-01-24T09:50:43.405Z,84.38
2018-01-24T09:51:43.423Z,95.63
2018-01-24T09:52:43.442Z,84.38
2018-01-24T09:53:43.454Z,90.00
2018-01-24T09:54:43.471Z,95.63
2018-01-24T09:55:43.488Z,106.88
2018-01-24T09:56:43.504Z,95.63
2018-01-24T09:57:43.523Z,78.75
2018-01-24T09:58:43.559Z,84.38
2018-01-24T09:59:43.555Z,95.63
2018-01-24T10:00:43.572Z,95.63
2018-01-24T10:01:43.595Z,90.00
2018-01-24T10:02:43.624Z,95.63
2018-01-24T10:03:43.621Z,95.63
2018-01-24T10:04:43.639Z,95.63
2018-01-24T10:05:43.654Z,73.13
2018-01-24T10:06:43.689Z,67.50
2018-01-24T10:07:43.692Z,67.50
2018-01-24T10:08:43.706Z,61.88
2018-01-24T10:09:43.725Z,61.88
2018-01-24T10:10:43.741Z,73.13
2018-01-24T10:11:43.766Z,73.13
2018-01-24T10:12:43.775Z,84.38
2018-01-24T10:13:43.793Z,73.13
2018-01-24T10:14:43.806Z,73.13
2018-01-24T10:15:43.823Z,73.13
2018-01-24T10:16:43.841Z,67.50
2018-01-24T10:17:43.856Z,67.50
2018-01-24T10:18:43.884Z,61.88
2018-01-24T10:19:43.892Z,61.88
2018-01-24T10:20:43.914Z,61.88
2018-01-24T10:21:43.929Z,56.25
2018-01-24T10:22:43.940Z,61.88
2018-01-24T10:23:43.959Z,61.88
2018-01-24T10:24:43.972Z,61.88
2018-01-24T10:25:43.993Z,61.88
2018-01-24T10:26:44.012Z,61.88
2018-01-24T10:27:44.031Z,61.88
2018-01-24T10:28:44.042Z,56.25
2018-01-24T10:29:44.062Z,61.88
2018-01-24T10:30:44.075Z,67.50
2018-01-24T10:31:44.092Z,67.50
2018-01-24T10:32:44.110Z,56.25
2018-01-24T10:33:44.125Z,61.88
2018-01-24T10:34:44.143Z,67.50
2018-01-24T10:35:44.161Z,67.50
2018-01-24T10:36:44.190Z,73.13
2018-01-24T10:37:44.192Z,73.13
2018-01-24T10:38:44.214Z,78.75
2018-01-24T10:39:44.226Z,78.75
2018-01-24T10:40:44.242Z,73.13
2018-01-24T10:41:44.258Z,90.00
2018-01-24T10:42:44.279Z,84.38
2018-01-24T10:43:44.295Z,90.00
2018-01-24T10:44:44.311Z,84.38
2018-01-24T10:45:44.326Z,90.00
2018-01-24T10:46:44.344Z,90.00
2018-01-24T10:47:44.372Z,118.13
2018-01-24T10:48:44.379Z,118.13
2018-01-24T10:49:44.395Z,118.13
2018-01-24T10:50:44.416Z,118.13
2018-01-24T10:51:44.427Z,140.63
2018-01-24T10:52:44.443Z,140.63
2018-01-24T10:53:44.459Z,140.63
2018-01-24T10:54:44.480Z,157.50
2018-01-24T10:55:44.492Z,174.38
2018-01-24T10:56:44.509Z,180.00
2018-01-24T10:57:44.526Z,151.88
2018-01-24T10:58:44.544Z,157.50
2018-01-24T10:59:44.561Z,180.00
2018-01-24T11:00:44.577Z,196.88
2018-01-24T11:01:44.596Z,196.88
2018-01-24T11:02:44.611Z,219.38
2018-01-24T11:03:44.635Z,236.25
2018-01-24T11:04:44.644Z,281.25
2018-01-24T11:05:44.661Z,303.75
2018-01-24T11:06:44.678Z,281.25
2018-01-24T11:07:44.697Z,264.38
2018-01-24T11:08:44.714Z,281.25
2018-01-24T11:09:44.735Z,292.50
2018-01-24T11:10:44.749Z,303.75
2018-01-24T11:11:44.766Z,315.00
2018-01-24T11:12:44.785Z,286.88
2018-01-24T11:13:44.801Z,253.13
2018-01-24T11:14:44.819Z,258.75
2018-01-24T11:15:44.844Z,253.13
2018-01-24T11:16:44.854Z,253.13
2018-01-24T11:17:44.871Z,241.88
2018-01-24T11:18:44.898Z,247.50
2018-01-24T11:19:44.908Z,236.25
2018-01-24T11:20:44.920Z,219.38
2018-01-24T11:21:44.943Z,213.75
2018-01-24T11:22:44.957Z,225.00
2018-01-24T11:23:44.977Z,202.50
2018-01-24T11:24:44.998Z,196.88
2018-01-24T11:25:45.010Z,191.25
2018-01-24T11:26:45.030Z,191.25
2018-01-24T11:27:45.044Z,168.75
2018-01-24T11:28:45.059Z,163.13
2018-01-24T11:29:45.080Z,168.75
2018-01-24T11:30:45.101Z,163.13
2018-01-24T11:31:45.114Z,185.63
2018-01-24T11:32:45.132Z,191.25
2018-01-24T11:33:45.150Z,225.00
2018-01-24T11:34:45.180Z,253.13
2018-01-24T11:35:45.188Z,241.88
2018-01-24T11:36:45.247Z,258.75
2018-01-24T11:37:45.217Z,264.38
2018-01-24T11:38:45.239Z,275.63
2018-01-24T11:39:45.257Z,292.50
2018-01-24T11:40:45.272Z,309.38
2018-01-24T11:41:45.289Z,326.25
2018-01-24T11:42:45.308Z,343.13
2018-01-24T11:43:45.325Z,343.13
2018-01-24T11:44:45.342Z,343.13
2018-01-24T11:45:45.376Z,331.88
2018-01-24T11:46:45.378Z,343.13
2018-01-24T11:47:45.394Z,360.00
2018-01-24T11:48:45.411Z,354.38
2018-01-24T11:49:45.429Z,343.13
2018-01-24T11:50:45.460Z,343.13
2018-01-24T11:51:45.469Z,348.75
2018-01-24T11:52:45.485Z,365.63
2018-01-24T11:53:45.503Z,376.88
2018-01-24T11:54:45.521Z,376.88
2018-01-24T11:55:45.539Z,382.50
2018-01-24T11:56:45.556Z,371.25
2018-01-24T11:57:45.574Z,371.25
2018-01-24T11:58:45.623Z,382.50
2018-01-24T11:59:45.626Z,388.13
2018-01-24T12:00:45.630Z,382.50
2018-01-24T12:01:45.646Z,371.25
2018-01-24T12:02:45.664Z,337.50
2018-01-24T12:03:45.689Z,320.63
2018-01-24T12:04:45.705Z,270.00
2018-01-24T12:05:45.725Z,241.88
2018-01-24T12:06:45.743Z,281.25
2018-01-24T12:07:45.757Z,315.00
2018-01-24T12:08:45.775Z,320.63
2018-01-24T12:09:45.794Z,309.38
2018-01-24T12:10:45.812Z,326.25
2018-01-24T12:11:45.830Z,298.13
2018-01-24T12:12:45.848Z,264.38
2018-01-24T12:13:45.867Z,264.38
2018-01-24T12:14:45.887Z,253.13
2018-01-24T12:15:45.943Z,258.75
2018-01-24T12:16:45.926Z,258.75
2018-01-24T12:17:45.940Z,253.13
2018-01-24T12:18:45.959Z,247.50
2018-01-24T12:19:45.977Z,247.50
2018-01-24T12:20:45.996Z,230.63
2018-01-24T12:21:46.015Z,219.38
2018-01-24T12:22:46.033Z,196.88
2018-01-24T12:23:46.052Z,247.50
2018-01-24T12:24:46.070Z,275.63
2018-01-24T12:25:46.087Z,247.50
2018-01-24T12:26:46.107Z,247.50
2018-01-24T12:27:46.127Z,253.13
2018-01-24T12:28:46.143Z,247.50
2018-01-24T12:29:46.163Z,281.25
2018-01-24T12:30:46.182Z,281.25
2018-01-24T12:31:46.202Z,286.88
2018-01-24T12:32:46.218Z,298.13
2018-01-24T12:33:46.235Z,292.50
2018-01-24T12:34:46.258Z,298.13
2018-01-24T12:35:46.272Z,309.38
2018-01-24T12:36:46.291Z,303.75
2018-01-24T12:37:46.311Z,303.75
2018-01-24T12:38:46.331Z,292.50
2018-01-24T12:39:46.351Z,275.63
2018-01-24T12:40:46.364Z,275.63
2018-01-24T12:41:46.384Z,275.63
2018-01-24T12:42:46.402Z,264.38
2018-01-24T12:43:46.425Z,270.00
2018-01-24T12:44:46.441Z,281.25
2018-01-24T12:45:46.686Z,286.88
2018-01-24T12:46:46.477Z,292.50
2018-01-24T12:47:46.497Z,303.75
2018-01-24T12:48:46.516Z,315.00
2018-01-24T12:49:46.532Z,315.00
2018-01-24T12:50:46.551Z,320.63
2018-01-24T12:51:46.575Z,331.88
2018-01-24T12:52:46.592Z,337.50
2018-01-24T12:53:46.611Z,337.50
2018-01-24T12:54:46.627Z,331.88
2018-01-24T12:55:46.646Z,320.63
2018-01-24T12:56:46.667Z,315.00
2018-01-24T12:57:46.685Z,326.25
2018-01-24T12:58:46.708Z,331.88
2018-01-24T12:59:46.720Z,326.25
2018-01-24T13:00:46.743Z,315.00
2018-01-24T13:01:46.768Z,303.75